createdAt,value
2022-10-18T00:01:44.196Z,101250.44
2022-10-18T00:05:47.393Z,101251.50
2022-10-18T00:09:48.861Z,101255.13
2022-10-18T00:13:50.668Z,101259.63
2022-10-18T00:17:52.363Z,101264.41
2022-10-18T00:21:53.887Z,101265.25
2022-10-18T00:26:23.528Z,101258.28
2022-10-18T00:30:25.349Z,101256.38
2022-10-18T00:34:26.938Z,101265.16
2022-10-18T00:38:28.501Z,101269.00
2022-10-18T00:42:32.823Z,101260.28
2022-10-18T00:46:37.518Z,101261.44
2022-10-18T00:50:40.401Z,101261.34
2022-10-18T00:54:44.381Z,101256.53
2022-10-18T00:58:48.428Z,101244.13
2022-10-18T01:02:49.992Z,101251.97
2022-10-18T01:07:01.448Z,101244.13
2022-10-18T01:11:26.598Z,101253.00
2022-10-18T01:15:32.800Z,101257.09
2022-10-18T01:20:17.691Z,101251.19
2022-10-18T01:24:51.921Z,101263.97
2022-10-18T01:29:08.766Z,101267.88
2022-10-18T01:33:18.963Z,101261.00
2022-10-18T01:37:22.507Z,101263.56
2022-10-18T01:41:25.927Z,101254.13
2022-10-18T01:45:28.484Z,101262.22
2022-10-18T01:49:30.012Z,101271.84
2022-10-18T01:53:33.866Z,101276.03
2022-10-18T01:58:02.199Z,101263.63
2022-10-18T02:02:23.633Z,101272.13
2022-10-18T02:06:31.284Z,101268.72
2022-10-18T02:10:41.133Z,101267.38
2022-10-18T02:14:44.987Z,101260.22
2022-10-18T02:18:58.730Z,101261.66
2022-10-18T02:23:01.579Z,101257.25
2022-10-18T02:27:03.468Z,101261.22
2022-10-18T02:31:20.244Z,101266.22
2022-10-18T02:35:37.506Z,101269.81
2022-10-18T02:39:50.298Z,101265.81
2022-10-18T02:43:52.094Z,101268.16
2022-10-18T02:47:53.696Z,101271.53
2022-10-18T02:51:55.277Z,101274.28
2022-10-18T02:55:57.003Z,101273.84
2022-10-18T02:59:58.574Z,101276.63
2022-10-18T03:04:00.179Z,101284.06
2022-10-18T03:08:01.644Z,101282.50
2022-10-18T03:12:03.350Z,101280.94
2022-10-18T03:16:05.210Z,101275.63
2022-10-18T03:20:07.397Z,101285.94
2022-10-18T03:24:08.954Z,101281.19
2022-10-18T03:28:10.645Z,101276.91
2022-10-18T03:32:12.122Z,101284.06
2022-10-18T03:36:14.440Z,101280.00
2022-10-18T03:40:16.356Z,101286.91
2022-10-18T03:44:17.962Z,101293.91
2022-10-18T03:48:19.434Z,101284.09
2022-10-18T03:52:20.991Z,101279.78
2022-10-18T03:56:22.508Z,101277.19
2022-10-18T04:00:24.009Z,101272.19
2022-10-18T04:04:25.548Z,101279.31
2022-10-18T04:08:27.339Z,101287.81
2022-10-18T04:12:29.142Z,101280.06
2022-10-18T04:16:30.846Z,101277.44
2022-10-18T04:20:32.419Z,101278.63
2022-10-18T04:24:33.936Z,101276.38
2022-10-18T04:28:39.820Z,101279.63
2022-10-18T04:32:41.583Z,101279.28
2022-10-18T04:36:43.098Z,101280.13
2022-10-18T04:40:44.752Z,101279.56
2022-10-18T04:44:46.300Z,101283.03
2022-10-18T04:48:47.938Z,101286.44
2022-10-18T04:56:54.158Z,101301.69
2022-10-18T05:00:55.776Z,101299.97
2022-10-18T05:04:57.479Z,101290.09
2022-10-18T05:26:23.592Z,101272.19
2022-10-18T05:30:26.889Z,101277.53
2022-10-18T05:34:31.985Z,101270.66
2022-10-18T05:38:33.626Z,101265.03
2022-10-18T05:42:35.288Z,101263.31
2022-10-18T05:46:37.044Z,101267.41
2022-10-18T05:50:40.362Z,101267.31
2022-10-18T05:54:42.109Z,101265.34
2022-10-18T05:58:43.748Z,101247.91
2022-10-18T06:02:45.409Z,101238.91
2022-10-18T06:06:47.072Z,101223.81
2022-10-18T06:10:48.749Z,101214.91
2022-10-18T06:14:50.340Z,101215.16
2022-10-18T06:18:54.773Z,101230.41
2022-10-18T06:22:56.460Z,101234.59
2022-10-18T06:26:58.162Z,101237.66
2022-10-18T06:30:59.924Z,101239.31
2022-10-18T06:35:01.677Z,101218.91
2022-10-18T06:39:03.472Z,101206.66
2022-10-18T06:43:20.192Z,101221.97
2022-10-18T06:47:22.918Z,101246.22
2022-10-18T06:51:24.702Z,101247.00
2022-10-18T06:55:32.340Z,101240.91
2022-10-18T07:00:27.789Z,101233.06
2022-10-18T07:04:30.305Z,101243.94
2022-10-18T07:08:32.901Z,101243.56
2022-10-18T07:12:34.590Z,101240.16
2022-10-18T07:16:36.285Z,101233.16
2022-10-18T07:20:37.813Z,101236.38
2022-10-18T07:24:39.416Z,101242.84
2022-10-18T07:28:41.356Z,101247.97
2022-10-18T07:32:46.261Z,101247.78
2022-10-18T07:36:57.151Z,101246.97
2022-10-18T07:41:00.426Z,101234.72
2022-10-18T07:45:05.975Z,101237.53
2022-10-18T07:49:38.336Z,101236.78
2022-10-18T07:54:13.928Z,101237.19
2022-10-18T07:58:15.468Z,101247.81
2022-10-18T08:02:16.947Z,101230.81
2022-10-18T08:07:14.025Z,101232.31
2022-10-18T08:11:44.497Z,101224.88
2022-10-18T08:21:51.543Z,101242.38
2022-10-18T08:25:53.315Z,101228.53
2022-10-18T08:29:54.878Z,101206.72
2022-10-18T08:34:00.025Z,101199.75
2022-10-18T08:38:01.803Z,101194.34
2022-10-18T08:42:25.110Z,101181.53
2022-10-18T08:46:44.505Z,101168.81
2022-10-18T08:56:54.431Z,101177.53
2022-10-18T09:00:55.843Z,101179.44
2022-10-18T09:05:47.600Z,101180.81
2022-10-18T09:10:26.550Z,101177.28
2022-10-18T09:15:18.365Z,101166.13
2022-10-18T09:19:46.930Z,101166.78
2022-10-18T09:24:14.900Z,101152.25
2022-10-18T09:28:41.768Z,101137.91
2022-10-18T09:33:35.620Z,101138.44
2022-10-18T09:38:04.282Z,101128.19
2022-10-18T09:42:17.399Z,101122.44
2022-10-18T09:47:22.579Z,101125.97
2022-10-18T09:57:49.278Z,101111.31
2022-10-18T10:01:54.003Z,101099.34
2022-10-18T10:06:38.899Z,101102.94
2022-10-18T10:11:25.529Z,101086.34
2022-10-18T10:15:31.212Z,101075.31
2022-10-18T10:19:59.248Z,101082.53
2022-10-18T10:24:27.366Z,101086.69
2022-10-18T10:28:41.211Z,101083.22
2022-10-18T10:32:47.493Z,101072.69
2022-10-18T10:36:54.590Z,101082.69
2022-10-18T10:41:24.340Z,101116.41
2022-10-18T10:46:16.953Z,101136.97
2022-10-18T10:50:28.213Z,101152.59
2022-10-18T10:54:35.784Z,101190.25
2022-10-18T10:58:40.549Z,101190.97
2022-10-18T11:08:58.638Z,101196.13
2022-10-18T11:13:31.803Z,101183.19
2022-10-18T11:17:40.240Z,101179.66
2022-10-18T11:21:42.834Z,101177.13
2022-10-18T11:26:03.111Z,101195.78
2022-10-18T11:30:35.498Z,101193.13
2022-10-18T11:34:52.347Z,101196.06
2022-10-18T11:39:09.097Z,101203.91
2022-10-18T11:43:30.260Z,101204.44
2022-10-18T11:48:17.604Z,101210.72
2022-10-18T11:52:19.021Z,101195.41
2022-10-18T11:56:37.447Z,101213.00
2022-10-18T12:01:00.123Z,101221.75
2022-10-18T12:05:22.456Z,101220.16
2022-10-18T12:09:35.473Z,101235.00
2022-10-18T12:13:53.473Z,101221.91
2022-10-18T12:17:59.835Z,101233.28
2022-10-18T12:22:14.235Z,101229.47
2022-10-18T12:26:17.065Z,101229.22
2022-10-18T12:30:54.268Z,101240.19
2022-10-18T12:35:11.335Z,101249.53
2022-10-18T12:39:37.670Z,101244.53
2022-10-18T12:44:00.795Z,101248.59
2022-10-18T12:48:06.922Z,101239.34
2022-10-18T12:52:22.288Z,101232.22
2022-10-18T12:56:30.573Z,101244.19
2022-10-18T13:00:32.372Z,101242.69
2022-10-18T13:04:35.256Z,101252.31
2022-10-18T13:08:41.800Z,101257.97
2022-10-18T13:12:43.364Z,101273.00
2022-10-18T13:16:57.161Z,101260.66
2022-10-18T13:21:19.154Z,101259.94
2022-10-18T13:25:23.636Z,101269.31
2022-10-18T13:29:41.249Z,101265.28
2022-10-18T13:33:43.086Z,101269.88
2022-10-18T13:37:58.292Z,101268.25
2022-10-18T13:42:00.745Z,101266.34
2022-10-18T13:46:05.459Z,101260.19
2022-10-18T13:50:30.735Z,101256.41
2022-10-18T13:54:35.498Z,101255.97
2022-10-18T13:59:14.342Z,101257.59
2022-10-18T14:08:10.246Z,101248.50
2022-10-18T14:12:31.936Z,101249.03
2022-10-18T14:17:03.972Z,101241.78
2022-10-18T14:21:21.105Z,101243.31
2022-10-18T14:25:29.660Z,101242.22
2022-10-18T14:29:31.339Z,101248.31
2022-10-18T14:33:43.036Z,101241.63
2022-10-18T14:37:47.698Z,101249.06
2022-10-18T14:41:52.057Z,101253.16
2022-10-18T14:45:53.701Z,101267.81
2022-10-18T14:49:57.636Z,101280.44
2022-10-18T14:54:00.125Z,101289.56
2022-10-18T14:58:02.700Z,101287.63
2022-10-18T15:02:14.309Z,101283.88
2022-10-18T15:06:20.065Z,101284.94
2022-10-18T15:10:33.502Z,101271.09
2022-10-18T15:14:36.565Z,101280.25
2022-10-18T15:18:38.084Z,101273.69
2022-10-18T15:22:39.670Z,101272.94
2022-10-18T15:26:44.568Z,101277.53
2022-10-18T15:30:46.261Z,101268.53
2022-10-18T15:34:47.946Z,101274.22
2022-10-18T15:38:50.111Z,101279.91
2022-10-18T15:42:57.611Z,101283.66
2022-10-18T15:47:20.468Z,101286.75
2022-10-18T15:51:49.190Z,101293.53
2022-10-18T15:56:00.659Z,101292.00
2022-10-18T16:00:06.826Z,101306.25
2022-10-18T16:04:19.990Z,101304.41
2022-10-18T16:08:30.214Z,101310.88
2022-10-18T16:12:31.661Z,101309.69
2022-10-18T16:16:33.540Z,101307.97
2022-10-18T16:20:35.479Z,101314.16
2022-10-18T16:24:36.969Z,101320.09
2022-10-18T16:28:38.768Z,101326.38
2022-10-18T16:32:40.997Z,101326.91
2022-10-18T16:36:42.986Z,101329.19
2022-10-18T16:40:45.962Z,101336.94
2022-10-18T16:44:48.932Z,101333.97
2022-10-18T16:48:51.725Z,101338.66
2022-10-18T16:52:53.383Z,101332.00
2022-10-18T16:56:54.912Z,101337.34
2022-10-18T17:00:58.025Z,101337.13
2022-10-18T17:04:59.702Z,101335.88
2022-10-18T17:09:01.445Z,101339.41
2022-10-18T17:13:03.046Z,101342.69
2022-10-18T17:17:04.728Z,101349.16
2022-10-18T17:21:06.403Z,101348.03
2022-10-18T17:25:08.431Z,101349.19
2022-10-18T17:29:10.151Z,101352.81
2022-10-18T17:33:13.053Z,101356.34
2022-10-18T17:37:15.375Z,101356.94
2022-10-18T17:41:17.122Z,101350.72
2022-10-18T17:45:20.215Z,101346.59
2022-10-18T17:49:22.171Z,101347.38
2022-10-18T17:53:28.436Z,101351.78
2022-10-18T17:57:30.316Z,101349.75
2022-10-18T18:01:32.295Z,101353.94
2022-10-18T18:05:34.342Z,101352.41
2022-10-18T18:09:36.311Z,101355.63
2022-10-18T18:13:38.088Z,101355.28
2022-10-18T18:17:56.049Z,101355.97
2022-10-18T18:21:59.293Z,101356.44
2022-10-18T18:26:00.812Z,101359.59
2022-10-18T18:30:02.436Z,101362.09
2022-10-18T18:34:03.938Z,101355.09
2022-10-18T18:38:05.433Z,101370.19
2022-10-18T18:42:07.397Z,101366.19
2022-10-18T18:46:09.472Z,101367.72
2022-10-18T18:50:11.144Z,101359.50
2022-10-18T18:54:14.301Z,101356.66
2022-10-18T18:58:16.671Z,101361.72
2022-10-18T19:02:18.253Z,101359.88
2022-10-18T19:06:25.467Z,101356.44
2022-10-18T19:10:30.460Z,101358.34
2022-10-18T19:14:36.447Z,101352.81
2022-10-18T19:18:39.361Z,101366.00
2022-10-18T19:22:41.749Z,101367.72
2022-10-18T19:26:48.653Z,101368.69
2022-10-18T19:30:50.600Z,101376.13
2022-10-18T19:34:52.782Z,101375.44
2022-10-18T19:39:30.101Z,101374.78
2022-10-18T19:44:22.221Z,101375.06
2022-10-18T19:48:24.004Z,101378.94
2022-10-18T19:52:42.010Z,101381.66
2022-10-18T20:02:44.699Z,101376.00
2022-10-18T20:06:48.709Z,101379.69
2022-10-18T20:10:50.531Z,101382.94
2022-10-18T20:15:27.524Z,101388.56
2022-10-18T20:26:06.925Z,101382.78
2022-10-18T20:30:45.408Z,101380.81
2022-10-18T20:34:47.128Z,101384.03
2022-10-18T20:39:40.328Z,101373.09
2022-10-18T20:44:34.780Z,101387.94
2022-10-18T20:48:38.839Z,101397.22
2022-10-18T20:52:40.455Z,101389.59
2022-10-18T20:56:42.274Z,101388.13
2022-10-18T21:00:43.745Z,101396.47
2022-10-18T21:04:48.882Z,101396.59
2022-10-18T21:09:05.769Z,101392.41
2022-10-18T21:13:35.518Z,101385.56
2022-10-18T21:17:37.096Z,101384.38
2022-10-18T21:21:42.236Z,101385.38
2022-10-18T21:25:45.388Z,101380.34
2022-10-18T21:29:50.096Z,101383.22
2022-10-18T21:34:28.207Z,101379.63
2022-10-18T21:38:31.059Z,101384.53
2022-10-18T21:42:32.835Z,101382.81
2022-10-18T21:46:35.200Z,101374.88
2022-10-18T21:50:36.669Z,101387.91
2022-10-18T21:54:38.132Z,101394.25
2022-10-18T21:58:40.318Z,101395.22
2022-10-18T22:02:42.072Z,101386.41
2022-10-18T22:06:43.663Z,101388.06
2022-10-18T22:10:45.390Z,101391.81
2022-10-18T22:14:47.121Z,101387.34
2022-10-18T22:18:50.509Z,101378.91
2022-10-18T22:22:53.939Z,101371.06
2022-10-18T22:26:56.063Z,101366.00
2022-10-18T22:30:57.781Z,101371.00
2022-10-18T22:34:59.325Z,101367.81
2022-10-18T22:39:00.908Z,101378.06
2022-10-18T22:43:02.420Z,101377.53
2022-10-18T22:47:03.917Z,101375.13
2022-10-18T22:51:05.853Z,101372.38
2022-10-18T22:55:07.961Z,101371.41
2022-10-18T22:59:09.554Z,101364.63
2022-10-18T23:03:11.572Z,101361.88
2022-10-18T23:07:13.145Z,101375.84
2022-10-18T23:11:15.133Z,101371.97
2022-10-18T23:15:16.698Z,101366.63
2022-10-18T23:19:18.210Z,101372.53
2022-10-18T23:23:19.733Z,101377.66
2022-10-18T23:27:21.224Z,101384.50
2022-10-18T23:31:26.212Z,101378.81
2022-10-18T23:35:28.871Z,101390.66
2022-10-18T23:39:30.528Z,101390.47
2022-10-18T23:43:32.505Z,101386.88
2022-10-18T23:47:34.342Z,101393.94
2022-10-18T23:51:36.191Z,101373.53
2022-10-18T23:55:37.892Z,101380.47
2022-10-18T23:59:39.356Z,101383.72
